Time;durP1;ratioP1;P1;durP2;ratioP2;P2;SDS_P1;SDS_P2;PMS_P1;PMS_P2;Temp;Humidity;BMP_temperature;BMP_pressure;BME280_temperature;BME280_humidity;BME280_pressure;Samples;Min_cycle;Max_cycle;Signal;HPM_P1;HPM_P2
2022/06/19 00:00:43;;;;;;;13.32;4.70;;;24.30;90.70;;;;;;4991656;28;20210;-74
2022/06/19 00:03:16;;;;;;;11.07;3.92;;;24.20;90.90;;;;;;4990454;28;20234;-74
2022/06/19 00:05:44;;;;;;;12.00;4.03;;;24.20;91.10;;;;;;4991654;28;20202;-74
2022/06/19 00:08:13;;;;;;;8.40;3.90;;;24.10;90.80;;;;;;4991582;28;20229;-74
2022/06/19 00:10:41;;;;;;;7.10;3.53;;;24.10;91.10;;;;;;4991177;28;20276;-74
2022/06/19 00:13:09;;;;;;;16.17;4.10;;;24.00;91.30;;;;;;4990690;28;20644;-73
2022/06/19 00:15:37;;;;;;;9.98;4.05;;;24.00;91.60;;;;;;4991468;28;20252;-74
2022/06/19 00:18:05;;;;;;;7.40;3.22;;;24.00;91.90;;;;;;4991445;28;20208;-75
2022/06/19 00:20:38;;;;;;;11.93;3.90;;;24.00;91.80;;;;;;4991442;28;20217;-74
2022/06/19 00:23:06;;;;;;;16.02;5.07;;;23.90;91.80;;;;;;4990568;28;20710;-74
2022/06/19 00:25:37;;;;;;;13.30;4.78;;;23.80;92.10;;;;;;4991035;28;20209;-75
2022/06/19 00:28:06;;;;;;;12.30;4.70;;;23.80;92.40;;;;;;4991216;28;20256;-75
2022/06/19 00:30:35;;;;;;;11.35;3.95;;;23.60;92.20;;;;;;4991496;28;20241;-75
2022/06/19 00:33:03;;;;;;;12.77;3.60;;;23.50;92.20;;;;;;4990482;28;20253;-74
2022/06/19 00:35:31;;;;;;;13.00;3.92;;;23.50;92.30;;;;;;4991481;28;20249;-72
2022/06/19 00:38:00;;;;;;;15.07;3.80;;;23.50;92.20;;;;;;4991364;28;20230;-72
2022/06/19 00:40:30;;;;;;;18.27;5.18;;;23.50;92.20;;;;;;4991394;28;20248;-72
2022/06/19 00:42:59;;;;;;;10.68;4.90;;;23.30;92.30;;;;;;4994294;28;20308;-71
2022/06/19 00:45:34;;;;;;;17.48;5.20;;;23.20;92.50;;;;;;4995079;28;20198;-71
2022/06/19 00:48:04;;;;;;;15.85;4.22;;;23.20;92.60;;;;;;4995045;28;20248;-72
2022/06/19 00:50:35;;;;;;;10.50;4.25;;;23.20;93.00;;;;;;4994962;28;20245;-72
2022/06/19 00:53:07;;;;;;;14.23;4.15;;;23.40;93.30;;;;;;4994137;28;20321;-72
2022/06/19 00:55:39;;;;;;;10.40;3.75;;;23.40;92.90;;;;;;4994638;28;20635;-71
2022/06/19 00:58:13;;;;;;;17.00;4.90;;;23.50;92.90;;;;;;4995123;28;20610;-72
2022/06/19 01:00:43;;;;;;;10.98;4.55;;;23.60;92.80;;;;;;4988652;28;20205;-72
2022/06/19 01:03:15;;;;;;;14.48;5.03;;;23.60;92.80;;;;;;4993663;28;20265;-72
2022/06/19 01:05:46;;;;;;;8.75;3.45;;;23.60;93.00;;;;;;4994717;28;20696;-72
2022/06/19 01:08:14;;;;;;;8.52;3.70;;;23.60;93.10;;;;;;4994570;28;20265;-72
2022/06/19 01:10:45;;;;;;;14.88;5.05;;;23.50;93.00;;;;;;4994264;28;20248;-72
2022/06/19 01:13:17;;;;;;;8.98;4.15;;;23.50;93.30;;;;;;4993742;28;20272;-72
2022/06/19 01:15:45;;;;;;;10.00;3.78;;;23.50;93.50;;;;;;4994589;28;20240;-73
2022/06/19 01:18:14;;;;;;;11.68;4.68;;;23.60;93.10;;;;;;4994326;28;20205;-72
2022/06/19 01:20:43;;;;;;;9.23;3.97;;;23.50;93.40;;;;;;4994135;28;20285;-72
2022/06/19 01:23:21;;;;;;;12.52;4.50;;;23.50;93.70;;;;;;4993645;28;20300;-72
2022/06/19 01:25:52;;;;;;;16.65;4.47;;;23.40;93.60;;;;;;4993955;28;20601;-72
2022/06/19 01:31:12;;;;;;;10.27;3.90;;;23.30;94.10;;;;;;4993983;28;20256;-72
2022/06/19 01:33:43;;;;;;;6.43;3.10;;;23.20;94.10;;;;;;4993534;28;20261;-72
2022/06/19 01:36:13;;;;;;;8.23;3.28;;;23.20;94.50;;;;;;4994089;28;20276;-72
2022/06/19 01:38:46;;;;;;;14.48;4.10;;;23.30;94.50;;;;;;4994122;28;20229;-71
2022/06/19 01:41:19;;;;;;;15.70;4.03;;;23.20;94.50;;;;;;4993528;28;20233;-72
2022/06/19 01:43:48;;;;;;;13.43;4.05;;;23.20;94.80;;;;;;4993259;28;20205;-72
2022/06/19 01:46:17;;;;;;;7.45;3.67;;;23.30;94.80;;;;;;4993969;28;20729;-72
2022/06/19 01:48:46;;;;;;;9.13;4.15;;;23.30;94.50;;;;;;4993774;28;20225;-72
2022/06/19 01:51:14;;;;;;;7.82;3.60;;;23.30;94.70;;;;;;4993651;28;21096;-72
2022/06/19 01:53:46;;;;;;;10.98;3.60;;;23.20;95.10;;;;;;4991937;28;20214;-72
2022/06/19 01:56:16;;;;;;;12.93;4.18;;;23.20;95.40;;;;;;4993481;28;20206;-72
2022/06/19 01:58:47;;;;;;;11.15;4.03;;;23.20;95.70;;;;;;4993737;28;20202;-72
2022/06/19 02:01:15;;;;;;;8.50;4.10;;;23.20;95.50;;;;;;4993155;28;20264;-72
2022/06/19 02:03:46;;;;;;;10.15;3.92;;;23.10;95.60;;;;;;4993172;28;20233;-74
2022/06/19 02:06:18;;;;;;;13.35;4.57;;;23.20;95.10;;;;;;4993492;28;20202;-74
2022/06/19 02:08:46;;;;;;;10.63;4.25;;;23.10;95.50;;;;;;4993593;28;20881;-74
2022/06/19 02:11:16;;;;;;;11.38;4.00;;;23.20;95.70;;;;;;4993114;28;20301;-75
2022/06/19 02:13:46;;;;;;;11.00;4.45;;;23.10;95.70;;;;;;4992952;28;20822;-75
2022/06/19 02:16:16;;;;;;;11.38;4.28;;;23.10;95.80;;;;;;4993389;28;20210;-74
2022/06/19 02:18:47;;;;;;;10.40;4.03;;;23.00;96.10;;;;;;4993363;28;20190;-73
2022/06/19 02:21:19;;;;;;;9.95;3.47;;;22.90;95.90;;;;;;4993120;28;20743;-73
2022/06/19 02:23:48;;;;;;;11.90;4.28;;;22.80;96.40;;;;;;4992537;28;20202;-73
2022/06/19 02:26:19;;;;;;;11.52;4.00;;;22.70;96.60;;;;;;4986809;28;20198;-73
2022/06/19 02:28:50;;;;;;;7.80;3.80;;;22.70;96.50;;;;;;4993127;28;20273;-73
2022/06/19 02:31:20;;;;;;;16.63;4.90;;;22.70;96.20;;;;;;4987003;28;20218;-74
2022/06/19 02:33:51;;;;;;;12.98;4.68;;;22.70;96.20;;;;;;4995677;28;20217;-75
2022/06/19 02:36:37;;;;;;;9.27;4.00;;;22.80;95.60;;;;;;4993087;28;20245;-74
2022/06/19 02:39:27;;;;;;;11.07;3.80;;;22.80;95.10;;;;;;4993140;28;20261;-74
2022/06/19 02:42:06;;;;;;;9.35;3.90;;;23.00;94.70;;;;;;4986073;28;20237;-71
2022/06/19 02:44:39;;;;;;;12.82;4.57;;;23.00;94.90;;;;;;4987767;28;20736;-75
2022/06/19 02:47:10;;;;;;;12.40;4.18;;;23.10;95.10;;;;;;4992823;28;20197;-74
2022/06/19 02:49:38;;;;;;;12.60;4.20;;;23.10;94.60;;;;;;4992587;28;20638;-73
2022/06/19 02:52:08;;;;;;;12.02;4.60;;;23.10;94.80;;;;;;4991873;28;20238;-74
2022/06/19 02:54:36;;;;;;;10.98;4.50;;;23.00;95.40;;;;;;4992442;28;20202;-75
2022/06/19 02:57:07;;;;;;;13.82;3.80;;;23.00;95.60;;;;;;4988656;28;20202;-73
2022/06/19 02:59:36;;;;;;;11.23;4.70;;;23.00;95.60;;;;;;4992739;28;20935;-73
2022/06/19 03:02:05;;;;;;;9.68;4.70;;;23.10;95.90;;;;;;4991492;28;20249;-74
2022/06/19 03:04:36;;;;;;;10.38;4.10;;;23.20;94.90;;;;;;4992502;28;20210;-75
2022/06/19 03:07:05;;;;;;;13.05;4.57;;;23.20;95.10;;;;;;4992526;28;20629;-74
2022/06/19 03:09:32;;;;;;;17.33;4.80;;;23.20;94.90;;;;;;4992190;28;20269;-75
2022/06/19 03:12:01;;;;;;;11.38;4.05;;;23.30;95.20;;;;;;4991521;28;20277;-72
2022/06/19 03:14:30;;;;;;;13.43;4.65;;;23.30;94.60;;;;;;4992375;28;20202;-74
2022/06/19 03:16:58;;;;;;;7.70;3.35;;;23.40;94.60;;;;;;4992162;28;20668;-74
2022/06/19 03:19:27;;;;;;;16.95;4.13;;;23.40;95.00;;;;;;4992356;28;20349;-74
2022/06/19 03:21:54;;;;;;;7.13;4.40;;;23.40;95.00;;;;;;4991719;28;20445;-70
2022/06/19 03:24:23;;;;;;;9.45;3.55;;;23.40;94.90;;;;;;4991484;28;20226;-74
2022/06/19 03:26:50;;;;;;;13.82;4.03;;;23.40;95.20;;;;;;4991817;28;20244;-74
2022/06/19 03:29:18;;;;;;;10.23;3.60;;;23.40;95.10;;;;;;4991979;28;20264;-74
2022/06/19 03:31:47;;;;;;;7.50;3.83;;;23.40;95.30;;;;;;4991852;28;20230;-74
2022/06/19 03:34:15;;;;;;;10.35;3.88;;;23.40;95.30;;;;;;4991387;28;20280;-74
2022/06/19 03:36:43;;;;;;;13.10;4.80;;;23.40;95.20;;;;;;4991994;28;20252;-74
2022/06/19 03:39:11;;;;;;;9.63;4.00;;;23.30;95.10;;;;;;4991890;28;20252;-74
2022/06/19 03:41:40;;;;;;;12.57;4.45;;;23.30;95.20;;;;;;4991544;28;20754;-74
2022/06/19 03:44:08;;;;;;;11.10;4.68;;;23.40;94.60;;;;;;4991100;28;20229;-74
2022/06/19 03:46:36;;;;;;;10.65;4.50;;;23.40;94.50;;;;;;4991911;28;20233;-74
2022/06/19 03:49:05;;;;;;;13.30;4.18;;;23.30;94.60;;;;;;4991680;28;20214;-74
2022/06/19 03:51:33;;;;;;;17.38;5.38;;;23.40;94.80;;;;;;4991545;28;20236;-74
2022/06/19 03:54:01;;;;;;;18.65;4.38;;;23.40;94.90;;;;;;4990741;28;20631;-73
2022/06/19 03:56:32;;;;;;;15.15;5.13;;;23.30;94.80;;;;;;4991251;28;20229;-73
2022/06/19 03:59:00;;;;;;;11.40;3.85;;;23.30;94.90;;;;;;4991490;28;20206;-74
2022/06/19 04:01:32;;;;;;;12.00;4.18;;;23.30;94.90;;;;;;4991807;28;20324;-74
2022/06/19 04:04:01;;;;;;;9.63;3.97;;;23.30;95.00;;;;;;4990185;28;20225;-70
2022/06/19 04:06:32;;;;;;;16.80;4.75;;;23.20;95.20;;;;;;4990243;28;20667;-71
2022/06/19 04:09:00;;;;;;;9.80;3.85;;;23.30;95.20;;;;;;4992978;28;20721;-71
2022/06/19 04:11:30;;;;;;;10.90;4.32;;;23.30;95.30;;;;;;4991214;28;20249;-74
2022/06/19 04:13:58;;;;;;;13.60;4.97;;;23.30;95.40;;;;;;4988242;28;20202;-72
2022/06/19 04:16:28;;;;;;;13.25;4.30;;;23.40;95.20;;;;;;4980712;28;20209;-69
2022/06/19 04:18:58;;;;;;;15.30;3.90;;;23.40;95.60;;;;;;4987477;28;20216;-72
2022/06/19 04:21:27;;;;;;;13.00;4.50;;;23.40;95.60;;;;;;4984855;28;20214;-72
2022/06/19 04:23:59;;;;;;;8.23;3.58;;;23.40;95.50;;;;;;4987218;28;20261;-72
2022/06/19 04:26:30;;;;;;;12.32;4.45;;;23.40;95.50;;;;;;4990661;28;20213;-71
2022/06/19 04:28:58;;;;;;;11.55;4.45;;;23.50;95.90;;;;;;4985998;28;20389;-73
2022/06/19 04:31:26;;;;;;;14.98;4.53;;;23.50;96.00;;;;;;4983582;28;20299;-73
2022/06/19 04:33:54;;;;;;;10.10;4.30;;;23.50;96.00;;;;;;4990299;28;20292;-70
2022/06/19 04:36:25;;;;;;;14.07;4.80;;;23.50;96.00;;;;;;4986802;28;21100;-72
2022/06/19 04:38:56;;;;;;;15.18;4.60;;;23.50;95.70;;;;;;4987354;28;20214;-72
2022/06/19 04:41:28;;;;;;;15.50;4.45;;;23.70;95.70;;;;;;4983405;28;20280;-69
2022/06/19 04:43:58;;;;;;;11.10;4.03;;;23.70;95.90;;;;;;4983359;28;20309;-70
2022/06/19 04:46:27;;;;;;;13.18;4.22;;;23.70;95.60;;;;;;4990790;28;20597;-72
2022/06/19 04:48:55;;;;;;;8.45;3.92;;;23.90;95.40;;;;;;4990015;28;20212;-72
2022/06/19 04:51:24;;;;;;;12.88;4.05;;;23.90;95.10;;;;;;4980138;28;20967;-72
2022/06/19 04:53:53;;;;;;;14.43;4.38;;;23.90;94.60;;;;;;4982806;28;20233;-72
2022/06/19 04:56:21;;;;;;;15.20;4.43;;;24.00;94.30;;;;;;4982171;28;20813;-70
2022/06/19 04:58:51;;;;;;;16.77;4.07;;;24.10;94.10;;;;;;4983714;28;20209;-72
2022/06/19 05:01:25;;;;;;;12.80;4.80;;;24.20;94.00;;;;;;4985623;28;20204;-72
2022/06/19 05:03:56;;;;;;;21.58;5.22;;;24.30;93.70;;;;;;4987268;28;20205;-70
2022/06/19 05:06:24;;;;;;;10.65;4.78;;;24.40;93.80;;;;;;4983512;28;20277;-69
2022/06/19 05:08:53;;;;;;;13.13;4.90;;;24.50;93.50;;;;;;4986694;28;20201;-71
2022/06/19 05:11:22;;;;;;;10.13;4.38;;;24.60;93.60;;;;;;4985552;28;21711;-69
2022/06/19 05:13:52;;;;;;;8.98;4.85;;;24.60;93.50;;;;;;4979870;28;20276;-69
2022/06/19 05:16:24;;;;;;;15.73;4.75;;;24.70;93.30;;;;;;4985894;28;20209;-72
2022/06/19 05:18:55;;;;;;;12.85;4.65;;;24.80;93.10;;;;;;4988616;28;20216;-69
2022/06/19 05:21:24;;;;;;;12.68;4.32;;;24.80;93.10;;;;;;4981455;28;20292;-69
2022/06/19 05:23:54;;;;;;;16.98;5.75;;;24.90;93.10;;;;;;4981262;28;20238;-72
2022/06/19 05:26:24;;;;;;;15.80;5.82;;;24.90;93.00;;;;;;4984891;28;20216;-70
2022/06/19 05:28:55;;;;;;;19.88;4.85;;;25.00;93.10;;;;;;4980485;28;20201;-72
2022/06/19 05:31:23;;;;;;;18.42;5.30;;;25.10;93.00;;;;;;4987203;28;20252;-71
2022/06/19 05:33:52;;;;;;;21.15;5.03;;;25.10;92.90;;;;;;4978670;28;20219;-71
2022/06/19 05:36:20;;;;;;;12.27;5.10;;;25.20;92.80;;;;;;4982823;28;20320;-71
2022/06/19 05:38:50;;;;;;;15.40;5.28;;;25.20;92.80;;;;;;4981630;28;20241;-73
2022/06/19 05:41:18;;;;;;;11.35;4.72;;;25.40;92.70;;;;;;4987268;28;20968;-71
2022/06/19 05:43:49;;;;;;;13.40;4.47;;;25.40;92.80;;;;;;4976770;28;20198;-70
2022/06/19 05:46:20;;;;;;;15.70;5.45;;;25.40;92.60;;;;;;4987042;28;20208;-70
2022/06/19 05:48:48;;;;;;;18.23;5.32;;;25.50;92.40;;;;;;4979204;28;20256;-70
2022/06/19 05:51:18;;;;;;;16.48;4.93;;;25.50;92.90;;;;;;4982183;28;20222;-73
2022/06/19 05:53:48;;;;;;;9.55;4.65;;;25.60;93.20;;;;;;4980692;28;20217;-73
2022/06/19 05:56:17;;;;;;;11.20;5.30;;;25.60;92.70;;;;;;4980683;28;20434;-71
2022/06/19 05:58:45;;;;;;;10.00;4.65;;;25.70;92.50;;;;;;4979347;28;20248;-71
2022/06/19 06:01:15;;;;;;;12.32;4.57;;;25.80;92.60;;;;;;4982520;28;20229;-71
2022/06/19 06:03:44;;;;;;;11.73;5.07;;;25.90;92.40;;;;;;4976827;28;20218;-72
2022/06/19 06:06:14;;;;;;;14.35;5.13;;;26.00;92.50;;;;;;4984372;28;20217;-71
2022/06/19 06:08:43;;;;;;;20.75;6.00;;;26.00;92.50;;;;;;4982466;28;20264;-70
2022/06/19 06:11:11;;;;;;;15.55;4.90;;;26.10;92.50;;;;;;4975981;28;20320;-70
2022/06/19 06:13:39;;;;;;;19.85;5.90;;;26.30;92.40;;;;;;4977203;28;20214;-73
2022/06/19 06:16:07;;;;;;;14.15;4.72;;;26.30;92.50;;;;;;4978213;28;20283;-72
2022/06/19 06:18:35;;;;;;;19.17;5.53;;;26.30;92.90;;;;;;4988784;28;20237;-74
2022/06/19 06:21:06;;;;;;;14.63;5.53;;;26.60;93.10;;;;;;5003571;28;20243;-73
2022/06/19 06:23:35;;;;;;;14.40;5.70;;;26.70;92.60;;;;;;4990273;28;20206;-73
2022/06/19 06:26:05;;;;;;;13.07;5.35;;;26.80;92.40;;;;;;4992685;28;20237;-74
2022/06/19 06:28:33;;;;;;;17.50;5.32;;;27.00;92.10;;;;;;4993312;28;20202;-74
2022/06/19 06:31:02;;;;;;;13.50;5.40;;;27.10;93.10;;;;;;4993298;28;20241;-73
2022/06/19 06:33:30;;;;;;;16.40;5.97;;;27.20;92.70;;;;;;4992277;28;20205;-73
2022/06/19 06:35:58;;;;;;;16.60;5.20;;;27.40;91.90;;;;;;4993068;28;20197;-73
2022/06/19 06:38:29;;;;;;;13.68;4.80;;;27.50;91.90;;;;;;4992635;28;20675;-73
2022/06/19 06:40:57;;;;;;;10.07;5.00;;;27.60;92.20;;;;;;4992803;28;20682;-74
2022/06/19 06:43:25;;;;;;;10.70;5.30;;;27.70;91.60;;;;;;4992185;28;20273;-74
2022/06/19 06:45:53;;;;;;;13.10;5.32;;;27.90;91.50;;;;;;4992932;28;20635;-74
2022/06/19 06:48:21;;;;;;;11.48;5.70;;;28.00;91.70;;;;;;4992507;28;20295;-74
2022/06/19 06:50:49;;;;;;;17.90;5.47;;;28.10;91.70;;;;;;4992735;28;20202;-74
2022/06/19 06:53:17;;;;;;;18.15;6.35;;;28.20;90.70;;;;;;4991780;28;20702;-73
2022/06/19 06:55:46;;;;;;;9.20;5.03;;;28.30;92.30;;;;;;4992242;28;20294;-74
2022/06/19 06:58:14;;;;;;;12.75;5.10;;;28.40;92.00;;;;;;4992557;28;20671;-73
2022/06/19 07:00:42;;;;;;;14.40;5.90;;;28.60;91.60;;;;;;4992471;28;20296;-74
2022/06/19 07:03:10;;;;;;;14.02;5.50;;;28.60;90.70;;;;;;4991386;28;20300;-73
2022/06/19 07:05:38;;;;;;;16.50;5.97;;;28.60;90.80;;;;;;4992962;28;20210;-73
2022/06/19 07:08:06;;;;;;;13.93;5.43;;;28.60;90.80;;;;;;4992456;28;20206;-73
2022/06/19 07:10:34;;;;;;;12.93;6.28;;;28.70;90.50;;;;;;4992323;28;20551;-73
2022/06/19 07:13:03;;;;;;;10.48;5.78;;;28.70;90.70;;;;;;4991331;28;20325;-73
2022/06/19 07:15:33;;;;;;;10.70;5.82;;;28.80;91.20;;;;;;4992361;28;20249;-73
2022/06/19 07:18:01;;;;;;;14.18;6.55;;;28.90;90.80;;;;;;4992247;28;20206;-73
2022/06/19 07:20:29;;;;;;;10.07;5.70;;;29.00;91.10;;;;;;4992404;28;20234;-73
2022/06/19 07:22:56;;;;;;;13.57;6.32;;;29.00;90.40;;;;;;4991487;28;20276;-73
2022/06/19 07:25:25;;;;;;;13.02;6.10;;;29.10;90.60;;;;;;4991807;28;20635;-74
2022/06/19 07:27:53;;;;;;;18.45;6.70;;;29.20;91.30;;;;;;4991686;28;20701;-73
2022/06/19 07:30:26;;;;;;;8.68;6.47;;;29.30;90.80;;;;;;4990141;28;20253;-73
2022/06/19 07:32:53;;;;;;;12.68;6.30;;;29.30;90.30;;;;;;4987457;28;20234;-72
2022/06/19 07:35:22;;;;;;;11.43;6.93;;;29.40;91.00;;;;;;4977020;28;20630;-72
2022/06/19 07:37:51;;;;;;;13.57;6.78;;;29.40;90.70;;;;;;4978580;28;20280;-73
2022/06/19 07:40:21;;;;;;;12.27;7.50;;;29.50;90.90;;;;;;4979979;28;21074;-73
2022/06/19 07:42:49;;;;;;;12.18;6.47;;;29.60;90.70;;;;;;4981613;28;20296;-71
2022/06/19 07:45:17;;;;;;;7.82;6.50;;;29.80;90.50;;;;;;4978236;28;20774;-72
2022/06/19 07:50:32;;;;;;;13.52;7.30;;;29.90;90.60;;;;;;4978151;28;20276;-74
2022/06/19 07:53:00;;;;;;;10.15;7.05;;;30.00;90.00;;;;;;4974933;28;20312;-75
2022/06/19 07:55:30;;;;;;;9.38;6.40;;;30.20;89.70;;;;;;4986705;28;20491;-71
2022/06/19 07:58:00;;;;;;;8.63;6.45;;;30.30;90.10;;;;;;4980850;28;20206;-73
2022/06/19 08:00:30;;;;;;;10.53;6.93;;;30.30;89.60;;;;;;4976909;28;20676;-74
2022/06/19 08:03:00;;;;;;;12.13;7.30;;;30.40;90.10;;;;;;4976211;28;20772;-68
2022/06/19 08:05:30;;;;;;;10.02;6.55;;;30.40;89.50;;;;;;4985278;28;20617;-68
2022/06/19 08:07:59;;;;;;;10.13;6.05;;;30.50;89.90;;;;;;4980988;28;20238;-67
2022/06/19 08:10:29;;;;;;;10.52;7.45;;;30.50;90.00;;;;;;4978165;28;20205;-69
2022/06/19 08:12:58;;;;;;;14.77;7.47;;;30.60;89.10;;;;;;4977890;28;20785;-69
2022/06/19 08:15:26;;;;;;;8.30;6.73;;;30.70;88.50;;;;;;4981835;28;20615;-68
2022/06/19 08:17:54;;;;;;;7.60;6.65;;;30.80;88.70;;;;;;4979490;28;20649;-69
2022/06/19 08:20:24;;;;;;;10.32;6.70;;;31.00;88.70;;;;;;4979583;28;20297;-69
2022/06/19 08:22:52;;;;;;;10.53;6.93;;;31.30;87.20;;;;;;4979839;28;20248;-68
2022/06/19 08:25:22;;;;;;;9.90;5.95;;;31.50;84.60;;;;;;4986413;28;20636;-70
2022/06/19 08:27:52;;;;;;;7.23;5.93;;;31.60;85.00;;;;;;4983734;28;20205;-68
2022/06/19 08:30:23;;;;;;;10.53;5.50;;;31.60;86.00;;;;;;4978850;28;21024;-68
2022/06/19 08:32:52;;;;;;;10.07;5.70;;;31.80;85.10;;;;;;4972872;28;20676;-69
2022/06/19 08:35:21;;;;;;;10.20;6.60;;;31.90;84.90;;;;;;4982537;28;20700;-69
2022/06/19 08:37:54;;;;;;;13.67;6.57;;;32.10;84.60;;;;;;4976368;28;20715;-69
2022/06/19 08:40:46;;;;;;;11.80;7.10;;;32.20;84.40;;;;;;4982228;28;20715;-69
2022/06/19 08:43:26;;;;;;;7.20;6.50;;;32.40;85.70;;;;;;4977170;28;20663;-69
2022/06/19 08:46:09;;;;;;;12.70;6.87;;;32.40;83.00;;;;;;4978248;28;20722;-69
2022/06/19 08:48:58;;;;;;;9.30;6.40;;;32.70;83.10;;;;;;4973349;28;20656;-69
2022/06/19 08:51:37;;;;;;;9.60;6.10;;;32.70;81.70;;;;;;4981811;28;20696;-69
2022/06/19 08:54:26;;;;;;;11.10;5.97;;;32.90;82.20;;;;;;4981486;28;21441;-68
2022/06/19 08:57:02;;;;;;;11.87;6.70;;;33.20;83.20;;;;;;4974052;28;21485;-68
2022/06/19 08:59:43;;;;;;;6.93;6.23;;;33.30;81.00;;;;;;4978544;28;20625;-67
2022/06/19 09:02:22;;;;;;;8.90;6.50;;;33.30;82.00;;;;;;4981987;28;20656;-69
2022/06/19 09:07:52;;;;;;;10.10;6.27;;;33.90;80.50;;;;;;4981356;28;20694;-69
2022/06/19 09:10:34;;;;;;;9.83;5.97;;;34.10;80.90;;;;;;4983502;28;20629;-67
2022/06/19 09:13:18;;;;;;;15.00;6.57;;;34.10;81.00;;;;;;4978382;28;20774;-69
2022/06/19 09:15:51;;;;;;;9.27;6.03;;;34.20;78.50;;;;;;4980379;28;21593;-69
2022/06/19 09:18:29;;;;;;;8.50;5.80;;;34.30;77.70;;;;;;4983022;28;20743;-69
2022/06/19 09:21:06;;;;;;;9.63;5.90;;;34.30;77.00;;;;;;4979881;28;20678;-69
2022/06/19 09:24:02;;;;;;;9.80;5.93;;;34.40;76.30;;;;;;4976784;28;20681;-69
2022/06/19 09:26:35;;;;;;;13.17;6.23;;;34.40;75.70;;;;;;4983825;28;20694;-69
2022/06/19 09:29:10;;;;;;;15.90;6.17;;;34.50;75.20;;;;;;4982930;28;20776;-70
2022/06/19 09:31:43;;;;;;;10.47;5.30;;;34.50;75.50;;;;;;4982778;28;20680;-69
2022/06/19 09:34:16;;;;;;;9.10;6.00;;;34.70;76.00;;;;;;4978243;28;21882;-66
2022/06/19 09:36:49;;;;;;;11.90;5.80;;;34.70;75.80;;;;;;4981204;28;21138;-67
2022/06/19 09:39:21;;;;;;;11.30;6.73;;;34.80;75.70;;;;;;4984865;28;21214;-68
2022/06/19 09:41:56;;;;;;;8.97;6.00;;;35.00;76.10;;;;;;4981225;28;20708;-68
2022/06/19 09:44:32;;;;;;;13.77;7.30;;;35.00;75.70;;;;;;4977202;28;20623;-68
2022/06/19 09:47:10;;;;;;;10.80;7.00;;;35.30;76.60;;;;;;4980497;28;20624;-68
2022/06/19 09:49:44;;;;;;;10.57;6.93;;;35.60;75.40;;;;;;4986242;28;20771;-69
2022/06/19 09:52:17;;;;;;;10.80;6.40;;;35.80;74.80;;;;;;4974352;28;21604;-69
2022/06/19 09:54:50;;;;;;;9.47;6.73;;;36.10;77.10;;;;;;4982983;28;20695;-69
2022/06/19 09:57:28;;;;;;;7.67;6.67;;;36.30;75.60;;;;;;4975985;28;20640;-68
2022/06/19 10:00:05;;;;;;;14.17;7.63;;;36.40;73.90;;;;;;4979000;28;21086;-69
2022/06/19 10:02:41;;;;;;;9.10;6.37;;;36.40;73.70;;;;;;4975470;28;21420;-70
2022/06/19 10:05:16;;;;;;;9.40;6.73;;;36.40;73.40;;;;;;4980442;28;20628;-68
2022/06/19 10:07:49;;;;;;;11.80;6.67;;;36.60;74.10;;;;;;4982141;28;20756;-69
2022/06/19 10:10:23;;;;;;;9.63;6.27;;;37.00;73.10;;;;;;4977048;28;20616;-69
2022/06/19 10:12:54;;;;;;;28.30;8.90;;;37.30;73.40;;;;;;4976767;28;20793;-69
2022/06/19 10:15:29;;;;;;;7.93;7.13;;;37.30;72.60;;;;;;4979513;28;20715;-68
2022/06/19 10:18:01;;;;;;;8.70;6.37;;;37.60;71.80;;;;;;4982515;28;20695;-68
2022/06/19 10:20:38;;;;;;;11.90;7.03;;;37.50;71.00;;;;;;4980196;28;20652;-68
2022/06/19 10:23:20;;;;;;;9.93;6.70;;;37.60;71.90;;;;;;4981717;28;20691;-70
2022/06/19 10:26:10;;;;;;;7.23;5.97;;;37.90;70.10;;;;;;4971170;28;20757;-69
2022/06/19 10:28:56;;;;;;;9.40;7.10;;;37.90;69.50;;;;;;4979193;28;20731;-68
2022/06/19 10:31:36;;;;;;;10.60;5.80;;;38.00;69.40;;;;;;4981740;28;20645;-69
2022/06/19 10:34:16;;;;;;;6.50;5.83;;;38.10;68.80;;;;;;4978559;28;20734;-69
2022/06/19 10:36:53;;;;;;;8.90;5.90;;;38.30;69.40;;;;;;4978701;28;20628;-69
2022/06/19 10:39:46;;;;;;;13.20;6.50;;;38.40;71.50;;;;;;4979321;28;20624;-69
2022/06/19 10:42:22;;;;;;;8.70;5.73;;;38.10;70.90;;;;;;4976970;28;20738;-69
2022/06/19 10:45:23;;;;;;;7.10;5.60;;;38.20;71.00;;;;;;4981654;28;20621;-69
2022/06/19 10:48:12;;;;;;;10.00;6.07;;;38.20;70.50;;;;;;4976909;28;20668;-69
2022/06/19 10:50:46;;;;;;;10.10;6.70;;;38.30;70.90;;;;;;4978357;28;21588;-68
2022/06/19 10:53:29;;;;;;;13.23;6.93;;;38.20;70.90;;;;;;4979663;28;21220;-67
2022/06/19 10:56:09;;;;;;;10.10;6.60;;;38.50;71.30;;;;;;4970037;28;20635;-70
2022/06/19 10:58:37;;;;;;;8.10;6.57;;;38.80;70.70;;;;;;4988506;28;20660;-70
2022/06/19 11:04:06;;;;;;;11.83;6.73;;;38.90;70.00;;;;;;4980519;28;20644;-69
2022/06/19 11:04:11;;;;;;;9.70;6.27;;;39.00;70.20;;;;;;4981798;28;20632;-69
2022/06/19 11:06:47;;;;;;;9.43;6.27;;;38.00;72.40;;;;;;4975200;28;20629;-69
2022/06/19 11:09:20;;;;;;;11.43;6.50;;;36.80;74.40;;;;;;4983826;28;20727;-69
2022/06/19 11:11:55;;;;;;;9.17;6.73;;;36.00;75.70;;;;;;4987347;28;20679;-67
2022/06/19 11:14:32;;;;;;;10.30;5.30;;;35.60;76.20;;;;;;4971720;28;21260;-69
2022/06/19 11:17:04;;;;;;;11.10;5.40;;;35.20;78.60;;;;;;4988820;28;20627;-69
2022/06/19 11:19:35;;;;;;;7.47;5.63;;;35.10;77.40;;;;;;4978490;28;22032;-69
2022/06/19 11:22:31;;;;;;;17.50;6.40;;;35.20;77.30;;;;;;4981323;28;20663;-69
2022/06/19 11:25:27;;;;;;;9.13;5.97;;;35.00;77.70;;;;;;4981284;28;20621;-68
2022/06/19 11:27:58;;;;;;;10.10;5.67;;;35.10;77.50;;;;;;4980186;28;20795;-69
2022/06/19 11:30:35;;;;;;;12.47;5.77;;;35.10;77.30;;;;;;4982616;28;20604;-68
2022/06/19 11:33:09;;;;;;;11.37;6.43;;;34.80;77.20;;;;;;4981162;28;20668;-69
2022/06/19 11:35:44;;;;;;;11.70;6.03;;;35.00;77.30;;;;;;4979066;28;20748;-69
2022/06/19 11:38:14;;;;;;;8.00;7.00;;;35.00;77.00;;;;;;4982087;28;20617;-68
2022/06/19 11:40:46;;;;;;;11.43;5.93;;;35.10;76.90;;;;;;4985277;28;21199;-68
2022/06/19 11:43:29;;;;;;;11.97;7.03;;;35.00;77.80;;;;;;4977139;28;20665;-69
2022/06/19 11:46:05;;;;;;;6.77;6.03;;;35.20;78.10;;;;;;4983435;28;20616;-70
2022/06/19 11:48:35;;;;;;;10.23;6.07;;;35.20;77.80;;;;;;4976580;28;20629;-69
2022/06/19 11:51:04;;;;;;;10.57;6.00;;;35.30;76.90;;;;;;4979384;28;20631;-69
2022/06/19 11:53:39;;;;;;;11.70;6.33;;;35.50;76.70;;;;;;4979026;28;20855;-70
2022/06/19 11:56:20;;;;;;;12.10;6.70;;;35.80;75.20;;;;;;4979422;28;21245;-69
2022/06/19 11:58:55;;;;;;;8.40;5.67;;;35.80;75.30;;;;;;4982190;28;20695;-69
2022/06/19 12:01:34;;;;;;;12.77;5.87;;;36.10;75.30;;;;;;4982779;28;21047;-69
2022/06/19 12:04:06;;;;;;;8.10;5.73;;;35.90;74.60;;;;;;4976738;28;21856;-69
2022/06/19 12:06:42;;;;;;;10.20;5.87;;;36.00;75.10;;;;;;4989294;28;20670;-69
2022/06/19 12:09:27;;;;;;;10.13;6.47;;;36.30;74.30;;;;;;4975440;28;20609;-68
2022/06/19 12:12:01;;;;;;;9.97;6.33;;;36.30;74.30;;;;;;4976936;28;21332;-66
2022/06/19 12:14:38;;;;;;;14.27;7.07;;;36.00;73.80;;;;;;4977541;28;20695;-70
2022/06/19 12:17:20;;;;;;;6.70;5.90;;;35.50;74.30;;;;;;4961460;28;20734;-69
2022/06/19 12:19:57;;;;;;;10.33;6.27;;;35.90;76.20;;;;;;4984300;28;20715;-70
2022/06/19 12:22:39;;;;;;;8.43;5.37;;;36.10;74.20;;;;;;4978305;28;21502;-70
2022/06/19 12:25:13;;;;;;;7.10;5.87;;;36.60;74.00;;;;;;4981202;28;21147;-70
2022/06/19 12:27:48;;;;;;;10.50;6.73;;;37.00;72.50;;;;;;4977703;28;20739;-70
2022/06/19 12:30:23;;;;;;;11.47;7.37;;;37.20;72.60;;;;;;4979906;28;20774;-70
2022/06/19 12:32:53;;;;;;;6.93;6.30;;;37.40;71.40;;;;;;4977736;28;21351;-68
2022/06/19 12:35:30;;;;;;;11.30;6.87;;;37.30;71.70;;;;;;4979813;28;20667;-70
2022/06/19 12:37:57;;;;;;;7.53;5.73;;;37.60;71.60;;;;;;4981965;28;20637;-69
2022/06/19 12:40:31;;;;;;;8.53;6.20;;;37.80;70.90;;;;;;4979565;28;20691;-70
2022/06/19 12:43:06;;;;;;;14.20;8.30;;;38.10;71.40;;;;;;4982298;28;20743;-70
2022/06/19 12:45:45;;;;;;;13.03;6.57;;;38.50;69.80;;;;;;4981257;28;21496;-70
2022/06/19 12:48:33;;;;;;;14.70;6.60;;;38.60;70.20;;;;;;4983781;28;20625;-70
2022/06/19 12:51:08;;;;;;;7.47;5.93;;;39.00;70.40;;;;;;4988478;28;21322;-70
2022/06/19 12:53:56;;;;;;;9.53;5.87;;;39.40;68.80;;;;;;4980172;28;20661;-70
2022/06/19 12:56:34;;;;;;;7.50;6.37;;;39.90;68.30;;;;;;4984305;28;20723;-70
2022/06/19 12:59:36;;;;;;;10.00;5.93;;;39.30;70.00;;;;;;4981809;28;20672;-70
2022/06/19 13:02:13;;;;;;;8.20;6.60;;;39.20;70.60;;;;;;4935741;28;20798;-70
2022/06/19 13:04:50;;;;;;;10.60;6.10;;;39.40;68.70;;;;;;4980159;28;22068;-70
2022/06/19 13:07:32;;;;;;;9.10;6.60;;;39.60;70.30;;;;;;4984339;28;20638;-69
2022/06/19 13:10:27;;;;;;;9.90;6.50;;;39.60;69.40;;;;;;4984070;28;20632;-70
2022/06/19 13:13:10;;;;;;;11.00;7.20;;;39.90;67.90;;;;;;4980900;28;20659;-69
2022/06/19 13:15:54;;;;;;;7.20;6.00;;;40.00;67.90;;;;;;4981869;28;20768;-70